createdAt,value
2023-08-21T00:01:53.642Z,154858.03
2023-08-21T00:03:55.152Z,154858.03
2023-08-21T00:05:57.092Z,154840.19
2023-08-21T00:07:58.692Z,154832.53
2023-08-21T00:10:00.194Z,154809.56
2023-08-21T00:12:02.012Z,154787.91
2023-08-21T00:14:03.683Z,154764.94
2023-08-21T00:16:05.220Z,154782.78
2023-08-21T00:18:07.018Z,154773.91
2023-08-21T00:20:08.949Z,154713.97
2023-08-21T00:22:10.384Z,154729.25
2023-08-21T00:24:11.979Z,154668.03
2023-08-21T00:26:13.497Z,154712.69
2023-08-21T00:28:15.305Z,154735.66
2023-08-21T00:30:16.938Z,154719.03
2023-08-21T00:32:18.480Z,154735.66
2023-08-21T00:34:19.916Z,154738.22
2023-08-21T00:36:21.605Z,154742.00
2023-08-21T00:38:23.278Z,154692.25
2023-08-21T00:40:24.703Z,154701.22
2023-08-21T00:42:26.323Z,154676.94
2023-08-21T00:44:27.896Z,154713.97
2023-08-21T00:46:29.453Z,154706.31
2023-08-21T00:48:31.096Z,154712.69
2023-08-21T00:50:32.750Z,154662.94
2023-08-21T00:52:35.826Z,154625.97
2023-08-21T00:54:38.085Z,154580.09
2023-08-21T00:56:39.867Z,154507.50
2023-08-21T00:58:41.687Z,154538.03
2023-08-21T01:00:46.367Z,154576.25
2023-08-21T01:02:48.254Z,154530.44
2023-08-21T01:04:49.697Z,154529.16
2023-08-21T01:06:51.558Z,154548.25
2023-08-21T01:08:53.189Z,154575.00
2023-08-21T01:11:06.969Z,154587.75
2023-08-21T01:13:33.823Z,154603.03
2023-08-21T01:15:35.492Z,154592.88
2023-08-21T01:17:41.410Z,154572.47
2023-08-21T01:19:45.628Z,154470.47
2023-08-21T01:21:47.309Z,154479.41
2023-08-21T01:23:48.731Z,154481.97
2023-08-21T01:25:50.404Z,154492.13
2023-08-21T01:27:52.228Z,154516.38
2023-08-21T01:29:54.775Z,154531.72
2023-08-21T01:32:33.874Z,154517.66
2023-08-21T01:34:38.176Z,154532.94
2023-08-21T01:36:40.775Z,154541.88
2023-08-21T01:38:42.772Z,154558.44
2023-08-21T01:40:44.378Z,154564.81
2023-08-21T01:42:45.829Z,154569.94
2023-08-21T01:44:47.445Z,154538.03
2023-08-21T01:46:49.031Z,154470.47
2023-08-21T01:48:50.502Z,154374.94
2023-08-21T01:50:52.159Z,154427.19
2023-08-21T01:52:53.681Z,154409.31
2023-08-21T01:54:55.160Z,154461.56
2023-08-21T01:56:56.877Z,154465.41
2023-08-21T01:58:58.402Z,154480.69
2023-08-21T02:01:00.008Z,154469.25
2023-08-21T02:03:01.676Z,154406.81
2023-08-21T02:05:03.513Z,154409.31
2023-08-21T02:07:05.016Z,154340.59
2023-08-21T02:09:06.545Z,154349.47
2023-08-21T02:11:08.152Z,154326.53
2023-08-21T02:13:09.597Z,154332.94
2023-08-21T02:15:11.488Z,154341.88
2023-08-21T02:17:13.254Z,154360.97
2023-08-21T02:19:14.780Z,154383.88
2023-08-21T02:21:16.419Z,154437.38
2023-08-21T02:23:18.171Z,154409.31
2023-08-21T02:25:19.675Z,154362.25
2023-08-21T02:27:21.353Z,154310.00
2023-08-21T02:29:22.980Z,154275.59
2023-08-21T02:31:24.550Z,154304.91
2023-08-21T02:33:26.169Z,154310.00
2023-08-21T02:35:27.760Z,154345.63
2023-08-21T02:37:29.190Z,154358.41
2023-08-21T02:39:30.700Z,154326.53
2023-08-21T02:41:32.214Z,154366.06
2023-08-21T02:43:34.332Z,154363.50
2023-08-21T02:45:35.865Z,154326.53
2023-08-21T02:47:41.447Z,154378.78
2023-08-21T02:49:43.189Z,154363.50
2023-08-21T02:51:44.837Z,154355.84
2023-08-21T02:53:46.375Z,154362.25
2023-08-21T02:55:47.813Z,154329.09
2023-08-21T02:57:49.469Z,154367.28
2023-08-21T02:59:51.156Z,154367.28
2023-08-21T03:01:52.656Z,154381.34
2023-08-21T03:03:54.281Z,154349.47
2023-08-21T03:05:55.806Z,154331.66
2023-08-21T03:07:57.270Z,154316.38
2023-08-21T03:09:58.906Z,154256.50
2023-08-21T03:12:00.544Z,154271.75
2023-08-21T03:14:02.007Z,154276.88
2023-08-21T03:16:03.529Z,154269.22
2023-08-21T03:18:05.255Z,154264.09
2023-08-21T03:20:07.297Z,154302.34
2023-08-21T03:22:08.864Z,154280.69
2023-08-21T03:24:10.456Z,154327.81
2023-08-21T03:26:11.892Z,154297.25
2023-08-21T03:28:14.102Z,154310.00
2023-08-21T03:30:16.429Z,154358.41
2023-08-21T03:32:18.713Z,154334.19
2023-08-21T03:34:20.267Z,154299.78
2023-08-21T03:36:22.123Z,154326.53
2023-08-21T03:38:23.552Z,154366.06
2023-08-21T03:40:25.284Z,154380.06
2023-08-21T03:42:26.948Z,154401.72
2023-08-21T03:44:28.376Z,154394.06
2023-08-21T03:46:30.020Z,154399.16
2023-08-21T03:48:31.678Z,154424.66
2023-08-21T03:50:33.117Z,154456.47
2023-08-21T03:52:34.741Z,154414.44
2023-08-21T03:54:36.524Z,154403.00
2023-08-21T03:56:38.228Z,154455.19
2023-08-21T03:58:39.847Z,154422.09
2023-08-21T04:00:41.409Z,154400.44
2023-08-21T04:02:43.710Z,154376.22
2023-08-21T04:04:45.338Z,154343.13
2023-08-21T04:06:46.844Z,154335.47
2023-08-21T04:08:48.337Z,154307.44
2023-08-21T04:10:50.233Z,154321.50
2023-08-21T04:12:51.652Z,154302.34
2023-08-21T04:14:53.106Z,154311.28
2023-08-21T04:16:54.875Z,154380.06
2023-08-21T04:18:56.321Z,154376.22
2023-08-21T04:20:57.781Z,154403.00
2023-08-21T04:22:59.407Z,154359.69
2023-08-21T04:25:01.370Z,154406.81
2023-08-21T04:27:02.869Z,154409.31
2023-08-21T04:29:04.659Z,154362.25
2023-08-21T04:31:07.221Z,154358.41
2023-08-21T04:33:08.787Z,154338.03
2023-08-21T04:35:10.646Z,154378.78
2023-08-21T04:37:12.097Z,154352.03
2023-08-21T04:39:13.610Z,154371.13
2023-08-21T04:41:15.196Z,154362.25
2023-08-21T04:43:16.648Z,154345.63
2023-08-21T04:45:18.223Z,154345.63
2023-08-21T04:47:24.628Z,154326.53
2023-08-21T04:49:26.201Z,154371.13
2023-08-21T04:51:27.844Z,154340.59
2023-08-21T04:53:29.379Z,154334.19
2023-08-21T04:55:30.814Z,154311.28
2023-08-21T04:57:32.256Z,154355.84
2023-08-21T04:59:33.918Z,154404.28
2023-08-21T05:01:35.393Z,154427.19
2023-08-21T05:03:36.994Z,154479.41
2023-08-21T05:05:38.914Z,154504.91
2023-08-21T05:07:40.430Z,154543.16
2023-08-21T05:09:41.859Z,154527.88
2023-08-21T05:11:43.716Z,154548.25
2023-08-21T05:13:45.164Z,154478.13
2023-08-21T05:16:02.801Z,154536.78
2023-08-21T05:18:04.694Z,154659.09
2023-08-21T05:20:06.587Z,154597.94
2023-08-21T05:22:08.192Z,154638.69
2023-08-21T05:24:10.115Z,154526.59
2023-08-21T05:26:11.607Z,154480.69
2023-08-21T05:28:13.126Z,154502.34
2023-08-21T05:30:14.793Z,154534.22
2023-08-21T05:32:16.244Z,154553.31
2023-08-21T05:34:17.723Z,154538.03
2023-08-21T05:36:19.621Z,154669.31
2023-08-21T05:38:21.041Z,154776.44
2023-08-21T05:40:22.546Z,154879.72
2023-08-21T05:42:24.155Z,154858.03
2023-08-21T05:44:25.603Z,154977.97
2023-08-21T05:46:27.086Z,154989.41
2023-08-21T05:48:29.242Z,154930.75
2023-08-21T05:50:30.825Z,154833.81
2023-08-21T05:52:32.256Z,154910.34
2023-08-21T05:54:34.028Z,154910.34
2023-08-21T05:56:35.483Z,154966.50
2023-08-21T05:58:38.455Z,154804.47
2023-08-21T06:00:42.723Z,154784.06
2023-08-21T06:02:44.282Z,154800.69
2023-08-21T06:04:46.692Z,154838.91
2023-08-21T06:06:48.380Z,154812.13
2023-08-21T06:08:49.844Z,154832.53
2023-08-21T06:10:54.127Z,154779.00
2023-08-21T06:12:56.172Z,154748.38
2023-08-21T06:14:57.614Z,154720.31
2023-08-21T06:17:01.612Z,154715.25
2023-08-21T06:19:03.437Z,154707.59
2023-08-21T06:21:04.894Z,154716.53
2023-08-21T06:23:06.350Z,154753.50
2023-08-21T06:25:10.471Z,154828.69
2023-08-21T06:27:11.939Z,154819.78
2023-08-21T06:29:13.387Z,154794.28
2023-08-21T06:31:16.273Z,154808.28
2023-08-21T06:33:17.812Z,154787.91
2023-08-21T06:35:19.275Z,154745.81
2023-08-21T06:37:21.186Z,154689.72
2023-08-21T06:39:22.657Z,154748.38
2023-08-21T06:41:24.129Z,154786.63
2023-08-21T06:43:26.327Z,154823.59
2023-08-21T06:45:27.879Z,154810.84
2023-08-21T06:47:29.322Z,154868.22
2023-08-21T06:49:31.161Z,154841.47
2023-08-21T06:51:32.646Z,154785.34
2023-08-21T06:53:34.146Z,154738.22
2023-08-21T06:55:35.908Z,154878.44
2023-08-21T06:57:37.349Z,154963.94
2023-08-21T06:59:40.679Z,155085.16
2023-08-21T07:01:43.831Z,155198.72
2023-08-21T07:03:45.252Z,155123.44
2023-08-21T07:06:00.859Z,155268.97
2023-08-21T07:08:02.863Z,155308.53
2023-08-21T07:10:04.612Z,155468.16
2023-08-21T07:12:06.692Z,155382.56
2023-08-21T07:14:08.647Z,155280.44
2023-08-21T07:16:10.189Z,155295.78
2023-08-21T07:18:11.940Z,155170.66
2023-08-21T07:20:13.902Z,155087.72
2023-08-21T07:22:15.405Z,155073.66
2023-08-21T07:24:16.849Z,155263.84
2023-08-21T07:26:18.522Z,155348.09
2023-08-21T07:28:19.984Z,155386.38
2023-08-21T07:30:22.337Z,155512.84
2023-08-21T07:32:24.076Z,155519.25
2023-08-21T07:34:25.519Z,155533.28
2023-08-21T07:36:26.954Z,155647.03
2023-08-21T07:38:28.823Z,155636.81
2023-08-21T07:40:30.355Z,155682.81
2023-08-21T07:42:31.834Z,155840.00
2023-08-21T07:44:33.703Z,155868.13
2023-08-21T07:46:35.192Z,155937.22
2023-08-21T07:48:36.791Z,156125.25
2023-08-21T07:50:38.519Z,155988.34
2023-08-21T07:52:40.112Z,155857.94
2023-08-21T07:54:41.839Z,155851.53
2023-08-21T07:56:43.535Z,155956.41
2023-08-21T07:58:44.966Z,156067.66
2023-08-21T08:00:46.920Z,156054.84
2023-08-21T08:02:48.514Z,155944.88
2023-08-21T08:04:50.054Z,155887.31
2023-08-21T08:06:51.489Z,155868.13
2023-08-21T08:08:53.116Z,155848.97
2023-08-21T08:10:55.836Z,155999.88
2023-08-21T08:12:57.390Z,155933.38
2023-08-21T08:14:59.034Z,156066.41
2023-08-21T08:17:00.482Z,156019.03
2023-08-21T08:19:01.919Z,155967.88
2023-08-21T08:21:03.540Z,155723.69
2023-08-21T08:23:05.085Z,155781.22
2023-08-21T08:25:07.053Z,155622.75
2023-08-21T08:27:08.625Z,155537.13
2023-08-21T08:29:10.599Z,155515.41
2023-08-21T08:31:16.685Z,155491.16
2023-08-21T08:33:18.382Z,155479.69
2023-08-21T08:35:19.921Z,155512.84
2023-08-21T08:37:21.568Z,155594.66
2023-08-21T08:39:23.269Z,155616.38
2023-08-21T08:41:49.574Z,155553.72
2023-08-21T08:43:51.147Z,155507.75
2023-08-21T08:45:55.764Z,155516.69
2023-08-21T08:48:00.738Z,155585.72
2023-08-21T08:50:04.031Z,155579.28
2023-08-21T08:52:06.083Z,155620.22
2023-08-21T08:54:07.796Z,155747.97
2023-08-21T08:56:09.536Z,155704.53
2023-08-21T08:58:11.445Z,155774.88
2023-08-21T09:00:13.599Z,155868.13
2023-08-21T09:02:16.949Z,155801.66
2023-08-21T09:04:18.881Z,155802.94
2023-08-21T09:06:20.364Z,155756.94
2023-08-21T09:08:21.877Z,155810.63
2023-08-21T09:10:26.733Z,155871.97
2023-08-21T09:12:28.226Z,155912.94
2023-08-21T09:14:30.597Z,155884.75
2023-08-21T09:16:32.665Z,155845.13
2023-08-21T09:18:35.336Z,155895.00
2023-08-21T09:20:37.010Z,155902.63
2023-08-21T09:22:39.090Z,155847.69
2023-08-21T09:24:41.722Z,155930.81
2023-08-21T09:26:43.142Z,155846.41
2023-08-21T09:28:44.814Z,155883.47
2023-08-21T09:30:49.008Z,155898.84
2023-08-21T09:32:58.271Z,155855.38
2023-08-21T09:35:00.120Z,155873.25
2023-08-21T09:37:01.570Z,155889.88
2023-08-21T09:39:03.521Z,155925.69
2023-08-21T09:41:05.087Z,155937.22
2023-08-21T09:43:06.612Z,155973.00
2023-08-21T09:45:08.987Z,155934.66
2023-08-21T09:47:13.737Z,155926.97
2023-08-21T09:49:18.152Z,156080.47
2023-08-21T09:51:19.913Z,155971.72
2023-08-21T09:53:22.114Z,155999.88
2023-08-21T09:55:23.849Z,155948.72
2023-08-21T09:57:25.320Z,155865.56
2023-08-21T09:59:27.326Z,155996.03
2023-08-21T10:01:29.941Z,155998.59
2023-08-21T10:03:33.295Z,156059.97
2023-08-21T10:05:35.936Z,155996.03
2023-08-21T10:07:38.475Z,155981.97
2023-08-21T10:09:42.685Z,155956.41
2023-08-21T10:11:45.003Z,156054.84
2023-08-21T10:13:46.980Z,156081.75
2023-08-21T10:15:49.073Z,156164.88
2023-08-21T10:17:50.920Z,156164.88
2023-08-21T10:19:53.149Z,156086.88
2023-08-21T10:21:56.544Z,156100.94
2023-08-21T10:23:57.993Z,156186.63
2023-08-21T10:26:02.460Z,156207.09
2023-08-21T10:28:04.549Z,156223.75
2023-08-21T10:30:14.425Z,156180.22
2023-08-21T10:32:23.309Z,156167.44
2023-08-21T10:34:33.187Z,156020.31
2023-08-21T10:36:43.638Z,155987.06
2023-08-21T10:38:59.881Z,156026.69
2023-08-21T10:41:08.366Z,156107.34
2023-08-21T10:43:38.365Z,156038.22
2023-08-21T10:45:54.689Z,156175.09
2023-08-21T10:48:00.276Z,156054.84
2023-08-21T10:50:07.047Z,156022.88
2023-08-21T10:52:10.012Z,156031.81
2023-08-21T10:54:12.617Z,156136.72
2023-08-21T10:56:14.493Z,156048.44
2023-08-21T10:58:16.017Z,156091.97
2023-08-21T11:00:19.395Z,156125.25
2023-08-21T11:02:20.996Z,156192.97
2023-08-21T11:04:22.700Z,156251.91
2023-08-21T11:06:24.230Z,156262.13
2023-08-21T11:08:25.883Z,156144.41
2023-08-21T11:10:31.445Z,156145.69
2023-08-21T11:12:32.966Z,155997.31
2023-08-21T11:14:34.761Z,156089.38
2023-08-21T11:16:36.452Z,156100.94
2023-08-21T11:18:38.936Z,156127.81
2023-08-21T11:20:42.137Z,156198.13
2023-08-21T11:22:45.624Z,156088.16
2023-08-21T11:24:48.699Z,156161.03
2023-08-21T11:26:50.381Z,156201.97
2023-08-21T11:28:52.253Z,156201.97
2023-08-21T11:30:56.453Z,156153.34
2023-08-21T11:33:24.841Z,156067.66
2023-08-21T11:35:26.425Z,156043.34
2023-08-21T11:37:28.433Z,156138.00
2023-08-21T11:39:43.446Z,155983.25
2023-08-21T11:41:58.081Z,156074.06
2023-08-21T11:44:04.108Z,155979.41
2023-08-21T11:46:06.996Z,156035.66
2023-08-21T11:48:08.658Z,156104.78
2023-08-21T11:50:10.397Z,156045.91
2023-08-21T11:52:12.672Z,156163.59
2023-08-21T11:54:14.121Z,156253.19
2023-08-21T11:56:17.405Z,156192.97
2023-08-21T11:58:19.989Z,156178.94
2023-08-21T12:00:28.691Z,156186.63
2023-08-21T12:02:30.548Z,156255.72
2023-08-21T12:04:32.055Z,156255.72
2023-08-21T12:06:33.617Z,156265.97
2023-08-21T12:08:35.709Z,156217.34
2023-08-21T12:10:40.424Z,156264.69
2023-08-21T12:12:43.080Z,156248.06
2023-08-21T12:14:44.851Z,156262.13
2023-08-21T12:16:46.419Z,156335.06
2023-08-21T12:18:48.067Z,156332.50
2023-08-21T12:20:49.584Z,156361.91
2023-08-21T12:22:51.295Z,156337.63
2023-08-21T12:24:53.065Z,156427.22
2023-08-21T12:26:54.577Z,156376.06
2023-08-21T12:28:56.068Z,156306.91
2023-08-21T12:30:57.607Z,156219.91
2023-08-21T12:33:06.351Z,156285.16
2023-08-21T12:35:18.418Z,156308.19
2023-08-21T12:37:19.953Z,156281.31
2023-08-21T12:39:21.408Z,156250.63
2023-08-21T12:41:22.942Z,156318.41
2023-08-21T12:43:24.564Z,156393.97
2023-08-21T12:45:25.995Z,156360.63
2023-08-21T12:47:27.623Z,156271.09
2023-08-21T12:49:29.188Z,156250.63
2023-08-21T12:51:31.406Z,156360.63
2023-08-21T12:53:33.108Z,156332.50
2023-08-21T12:55:34.861Z,156364.47
2023-08-21T12:57:36.532Z,156322.25
2023-08-21T12:59:38.781Z,156305.63
2023-08-21T13:01:40.480Z,156361.91
2023-08-21T13:03:48.364Z,156436.19
2023-08-21T13:05:50.375Z,156400.34
2023-08-21T13:07:52.042Z,156381.16
2023-08-21T13:09:53.494Z,156239.09
2023-08-21T13:11:55.930Z,156268.53
2023-08-21T13:13:57.675Z,156278.75
2023-08-21T13:15:59.205Z,156294.13
2023-08-21T13:18:01.067Z,156192.97
2023-08-21T13:20:03.254Z,156150.78
2023-08-21T13:22:04.729Z,156135.44
2023-08-21T13:24:06.388Z,156122.66
2023-08-21T13:26:07.975Z,156120.09
2023-08-21T13:28:11.293Z,156273.66
2023-08-21T13:30:14.699Z,156401.63
2023-08-21T13:32:16.422Z,156415.72
2023-08-21T13:34:17.971Z,156478.44
2023-08-21T13:36:19.572Z,156472.03
2023-08-21T13:38:21.113Z,156372.22
2023-08-21T13:40:22.585Z,156387.56
2023-08-21T13:42:24.123Z,156346.56
2023-08-21T13:44:25.680Z,156402.91
2023-08-21T13:46:27.116Z,156342.72
2023-08-21T13:48:29.090Z,156309.47
2023-08-21T13:50:30.868Z,156297.94
2023-08-21T13:52:32.519Z,156283.88
2023-08-21T13:54:34.189Z,156198.13
2023-08-21T13:56:35.755Z,156170.00
2023-08-21T13:58:37.514Z,156094.53
2023-08-21T14:00:39.316Z,156097.09
2023-08-21T14:02:42.147Z,156074.06
2023-08-21T14:04:43.797Z,156130.31
2023-08-21T14:06:45.688Z,156289.00
2023-08-21T14:08:47.216Z,156335.06
2023-08-21T14:10:48.640Z,156304.34
2023-08-21T14:12:50.265Z,156306.91
2023-08-21T14:14:51.847Z,156303.06
2023-08-21T14:16:53.341Z,156264.69
2023-08-21T14:18:54.900Z,156327.38
2023-08-21T14:20:56.624Z,156392.69
2023-08-21T14:22:58.151Z,156361.91
2023-08-21T14:25:00.641Z,156245.50
2023-08-21T14:27:03.593Z,156306.91
2023-08-21T14:29:05.025Z,156308.19
2023-08-21T14:31:06.679Z,156263.41
2023-08-21T14:33:08.256Z,156192.97
2023-08-21T14:35:10.089Z,156178.94
2023-08-21T14:37:11.724Z,156176.38
2023-08-21T14:39:13.576Z,156161.03
2023-08-21T14:41:15.042Z,156141.84
2023-08-21T14:43:16.573Z,156168.72
2023-08-21T14:45:18.303Z,156217.34
2023-08-21T14:47:19.772Z,156203.25
2023-08-21T14:49:21.910Z,156171.28
2023-08-21T14:51:23.634Z,156170.00
2023-08-21T14:53:27.626Z,156136.72
2023-08-21T14:55:29.575Z,156131.59
2023-08-21T14:57:31.150Z,156107.34
2023-08-21T14:59:32.682Z,156040.78
2023-08-21T15:01:34.403Z,156117.53
2023-08-21T15:03:36.058Z,156090.66
2023-08-21T15:05:37.555Z,156074.06
2023-08-21T15:07:39.369Z,156103.50
2023-08-21T15:09:41.184Z,156135.44
2023-08-21T15:11:42.601Z,156173.81
2023-08-21T15:13:44.326Z,156084.31
2023-08-21T15:15:45.959Z,156111.13
2023-08-21T15:17:48.028Z,156056.13
2023-08-21T15:19:49.774Z,156068.94
2023-08-21T15:21:51.338Z,156068.94
2023-08-21T15:23:52.775Z,156077.91
2023-08-21T15:25:54.392Z,156061.25
2023-08-21T15:27:55.999Z,156030.53
2023-08-21T15:29:57.459Z,156039.50
2023-08-21T15:31:59.123Z,155971.72
2023-08-21T15:34:00.887Z,156020.31
2023-08-21T15:36:02.975Z,156019.03
2023-08-21T15:38:04.526Z,155992.19
2023-08-21T15:40:06.695Z,156012.63
2023-08-21T15:42:08.132Z,156007.50
2023-08-21T15:44:09.618Z,156008.78
2023-08-21T15:46:11.210Z,155969.16
2023-08-21T15:48:12.812Z,155961.53
2023-08-21T15:50:14.379Z,155939.78
2023-08-21T15:52:15.942Z,155946.16
2023-08-21T15:54:20.424Z,155891.16
2023-08-21T15:56:21.980Z,155901.34
2023-08-21T15:58:23.519Z,155884.75
2023-08-21T16:00:24.977Z,155888.59
2023-08-21T16:02:26.667Z,155909.09
2023-08-21T16:04:28.440Z,155905.19
2023-08-21T16:06:30.256Z,155889.88
2023-08-21T16:08:31.925Z,155877.09
2023-08-21T16:10:33.556Z,155912.94
2023-08-21T16:12:35.175Z,155897.56
2023-08-21T16:14:36.874Z,155875.81
2023-08-21T16:16:38.697Z,155892.44
2023-08-21T16:18:40.332Z,155846.41
2023-08-21T16:20:41.899Z,155874.53
2023-08-21T16:22:43.609Z,155882.19
2023-08-21T16:24:45.166Z,155841.28
2023-08-21T16:26:46.765Z,155847.69
2023-08-21T16:28:48.302Z,155843.84
2023-08-21T16:30:49.729Z,155788.91
2023-08-21T16:32:51.412Z,155818.28
2023-08-21T16:34:52.982Z,155823.41
2023-08-21T16:36:54.590Z,155825.97
2023-08-21T16:38:56.413Z,155797.81
2023-08-21T16:40:58.051Z,155785.06
2023-08-21T16:42:59.495Z,155724.97
2023-08-21T16:45:01.102Z,155756.94
2023-08-21T16:47:02.709Z,155782.50
2023-08-21T16:49:04.150Z,155792.75
2023-08-21T16:51:05.856Z,155741.56
2023-08-21T16:53:21.429Z,155737.72
2023-08-21T16:55:24.696Z,155790.19
2023-08-21T16:57:26.302Z,155759.50
2023-08-21T16:59:27.835Z,155745.41
2023-08-21T17:01:29.440Z,155723.69
2023-08-21T17:03:31.143Z,155718.56
2023-08-21T17:05:32.911Z,155713.50
2023-08-21T17:07:34.914Z,155716.00
2023-08-21T17:09:36.455Z,155695.56
2023-08-21T17:11:38.536Z,155664.94
2023-08-21T17:13:40.130Z,155649.59
2023-08-21T17:15:41.841Z,155635.53
2023-08-21T17:17:43.494Z,155659.81
2023-08-21T17:19:45.807Z,155631.69
2023-08-21T17:21:47.421Z,155636.81
2023-08-21T17:23:48.959Z,155632.97
2023-08-21T17:25:50.431Z,155625.31
2023-08-21T17:27:52.018Z,155677.69
2023-08-21T17:29:53.530Z,155638.09
2023-08-21T17:31:54.994Z,155626.59
2023-08-21T17:33:56.653Z,155624.03
2023-08-21T17:35:58.202Z,155632.97
2023-08-21T17:37:59.709Z,155537.13
2023-08-21T17:40:01.444Z,155552.44
2023-08-21T17:42:03.806Z,155551.16
2023-08-21T17:44:05.361Z,155563.97
2023-08-21T17:46:06.905Z,155551.16
2023-08-21T17:48:08.598Z,155565.25
2023-08-21T17:50:10.159Z,155498.81
2023-08-21T17:52:11.635Z,155456.69
2023-08-21T17:54:13.204Z,155442.66
2023-08-21T17:56:14.623Z,155466.88
2023-08-21T17:58:16.078Z,155459.25
2023-08-21T18:00:17.957Z,155455.41
2023-08-21T18:02:27.382Z,155432.41
2023-08-21T18:04:29.291Z,155441.38
2023-08-21T18:06:30.967Z,155475.84
2023-08-21T18:08:32.432Z,155496.28
2023-08-21T18:10:34.617Z,155502.66
2023-08-21T18:12:36.963Z,155474.56
2023-08-21T18:14:38.394Z,155472.00
2023-08-21T18:16:39.874Z,155452.84
2023-08-21T18:18:41.342Z,155442.66
2023-08-21T18:20:54.139Z,155426.00
2023-08-21T18:22:55.765Z,155394.06
2023-08-21T18:24:57.347Z,155359.63
2023-08-21T18:26:58.809Z,155339.19
2023-08-21T18:29:00.354Z,155297.06
2023-08-21T18:31:01.972Z,155270.25
2023-08-21T18:33:04.515Z,155236.97
2023-08-21T18:35:06.701Z,155207.66
2023-08-21T18:37:09.701Z,155199.97
2023-08-21T18:39:11.275Z,155166.81
2023-08-21T18:41:12.731Z,155154.03
2023-08-21T18:43:14.488Z,155141.28
2023-08-21T18:45:16.000Z,155101.75
2023-08-21T18:47:17.544Z,155069.88
2023-08-21T18:49:19.284Z,155044.31
2023-08-21T18:51:20.799Z,155064.72
2023-08-21T18:53:22.428Z,155034.06
2023-08-21T18:55:23.861Z,154972.84
2023-08-21T18:57:25.355Z,154934.59
2023-08-21T18:59:26.816Z,154897.63
2023-08-21T19:01:28.714Z,154896.34
2023-08-21T19:03:30.430Z,154864.38
2023-08-21T19:05:32.141Z,154855.47
2023-08-21T19:07:33.790Z,154842.72
2023-08-21T19:09:35.336Z,154845.25
2023-08-21T19:11:37.500Z,154822.31
2023-08-21T19:13:39.141Z,154809.56
2023-08-21T19:15:40.610Z,154771.34
2023-08-21T19:17:42.988Z,154756.06
2023-08-21T19:19:44.552Z,154728.00
2023-08-21T19:21:47.056Z,154735.66
2023-08-21T19:23:48.696Z,154716.53
2023-08-21T19:25:50.157Z,154689.72
2023-08-21T19:27:51.634Z,154682.03
2023-08-21T19:29:53.073Z,154668.03
2023-08-21T19:31:54.749Z,154687.16
2023-08-21T19:33:57.856Z,154698.59
2023-08-21T19:35:59.506Z,154651.47
2023-08-21T19:38:01.284Z,154623.44
2023-08-21T19:40:02.727Z,154629.81
2023-08-21T19:42:04.670Z,154615.75
2023-08-21T19:44:06.157Z,154594.09
2023-08-21T19:46:07.708Z,154582.66
2023-08-21T19:48:09.479Z,154595.38
2023-08-21T19:50:11.104Z,154541.88
2023-08-21T19:52:12.541Z,154539.31
2023-08-21T19:54:13.995Z,154538.03
2023-08-21T19:56:15.833Z,154506.22
2023-08-21T19:58:17.267Z,154503.63
2023-08-21T20:00:18.699Z,154460.31
2023-08-21T20:02:20.223Z,154476.84
2023-08-21T20:04:21.725Z,154461.56
2023-08-21T20:06:23.190Z,154488.34
2023-08-21T20:08:24.812Z,154484.50
2023-08-21T20:10:26.267Z,154387.66
2023-08-21T20:12:27.789Z,154448.84
2023-08-21T20:14:29.473Z,154473.00
2023-08-21T20:16:31.146Z,154470.47
2023-08-21T20:18:32.757Z,154450.09
2023-08-21T20:20:34.314Z,154467.97
2023-08-21T20:22:35.768Z,154465.41
2023-08-21T20:24:37.323Z,154395.31
2023-08-21T20:26:38.912Z,154377.50
2023-08-21T20:28:40.351Z,154400.44
2023-08-21T20:30:42.029Z,154355.84
2023-08-21T20:32:43.580Z,154369.84
2023-08-21T20:34:45.134Z,154434.81
2023-08-21T20:36:46.708Z,154466.69
2023-08-21T20:38:48.235Z,154494.69
2023-08-21T20:40:52.709Z,154480.69
2023-08-21T20:42:54.696Z,154445.03
2023-08-21T20:44:56.253Z,154460.31
2023-08-21T20:46:57.754Z,154437.38
2023-08-21T20:48:59.420Z,154485.78
2023-08-21T20:51:01.412Z,154476.84
2023-08-21T20:53:02.923Z,154460.31
2023-08-21T20:55:04.722Z,154438.63
2023-08-21T20:57:06.268Z,154390.22
2023-08-21T20:59:07.703Z,154428.44
2023-08-21T21:01:09.166Z,154420.81
2023-08-21T21:03:10.961Z,154409.31
2023-08-21T21:05:12.565Z,154414.44
2023-08-21T21:07:14.959Z,154403.00
2023-08-21T21:09:16.415Z,154395.31
2023-08-21T21:11:17.861Z,154391.50
2023-08-21T21:13:19.430Z,154445.03
2023-08-21T21:15:20.959Z,154424.66
2023-08-21T21:17:22.428Z,154461.56
2023-08-21T21:19:24.516Z,154437.38
2023-08-21T21:21:26.286Z,154404.28
2023-08-21T21:23:27.746Z,154457.75
2023-08-21T21:25:29.379Z,154462.84
2023-08-21T21:27:30.957Z,154481.97
2023-08-21T21:29:33.536Z,154471.75
2023-08-21T21:31:36.765Z,154462.84
2023-08-21T21:33:38.379Z,154502.34
2023-08-21T21:35:39.852Z,154462.84
2023-08-21T21:37:41.734Z,154448.84
2023-08-21T21:39:43.963Z,154480.69
2023-08-21T21:41:45.455Z,154459.03
2023-08-21T21:43:47.148Z,154478.13
2023-08-21T21:45:56.468Z,154453.91
2023-08-21T21:47:57.990Z,154462.84
2023-08-21T21:49:59.566Z,154457.75
2023-08-21T21:52:01.142Z,154485.78
2023-08-21T21:54:02.839Z,154410.59
2023-08-21T21:56:04.655Z,154451.34
2023-08-21T21:58:06.284Z,154423.38
2023-08-21T22:00:08.400Z,154422.09
2023-08-21T22:02:10.140Z,154430.97
2023-08-21T22:04:11.960Z,154414.44
2023-08-21T22:06:13.496Z,154484.50
2023-08-21T22:08:15.676Z,154465.41
2023-08-21T22:10:17.320Z,154406.81
2023-08-21T22:12:18.806Z,154487.06
2023-08-21T22:14:20.436Z,154485.78
2023-08-21T22:16:21.946Z,154485.78
2023-08-21T22:18:23.432Z,154452.63
2023-08-21T22:20:24.989Z,154445.03
2023-08-21T22:22:26.611Z,154475.56
2023-08-21T22:24:28.434Z,154530.44
2023-08-21T22:26:29.950Z,154534.22
2023-08-21T22:28:31.666Z,154527.88
2023-08-21T22:30:33.141Z,154502.34
2023-08-21T22:32:35.716Z,154450.09
2023-08-21T22:34:37.242Z,154501.06
2023-08-21T22:36:38.681Z,154474.28
2023-08-21T22:38:40.370Z,154483.22
2023-08-21T22:40:41.945Z,154460.31
2023-08-21T22:42:43.391Z,154441.19
2023-08-21T22:44:45.013Z,154455.19
2023-08-21T22:46:46.600Z,154425.94
2023-08-21T22:48:48.133Z,154367.28
2023-08-21T22:50:49.860Z,154371.13
2023-08-21T22:52:51.464Z,154304.91
2023-08-21T22:54:52.929Z,154298.50
2023-08-21T22:56:54.478Z,154251.38
2023-08-21T22:58:56.110Z,154210.66
2023-08-21T23:00:58.480Z,154175.03
2023-08-21T23:03:00.195Z,154154.66
2023-08-21T23:05:01.864Z,154185.19
2023-08-21T23:07:03.651Z,154215.75
2023-08-21T23:09:05.342Z,154182.63
2023-08-21T23:11:07.004Z,154159.72
2023-08-21T23:13:08.439Z,154134.28
2023-08-21T23:15:10.374Z,154152.09
2023-08-21T23:17:11.978Z,154148.28